sensor_id;sensor_type;location;lat;lon;timestamp;temperature;humidity
52849;DHT22;38714;53.180;5.812;2022-12-29T00:01:33;9.10;99.90
52849;DHT22;38714;53.180;5.812;2022-12-29T00:03:59;9.10;99.90
52849;DHT22;38714;53.180;5.812;2022-12-29T00:06:25;9.20;99.90
52849;DHT22;38714;53.180;5.812;2022-12-29T00:08:51;9.10;99.90
52849;DHT22;38714;53.180;5.812;2022-12-29T00:11:21;9.20;99.90
52849;DHT22;38714;53.180;5.812;2022-12-29T00:13:47;9.20;99.90
52849;DHT22;38714;53.180;5.812;2022-12-29T00:16:33;9.20;99.90
52849;DHT22;38714;53.180;5.812;2022-12-29T00:18:59;9.20;99.90
52849;DHT22;38714;53.180;5.812;2022-12-29T00:21:26;9.20;99.90
52849;DHT22;38714;53.180;5.812;2022-12-29T00:24:19;9.20;99.90
52849;DHT22;38714;53.180;5.812;2022-12-29T00:29:46;9.30;99.90
52849;DHT22;38714;53.180;5.812;2022-12-29T00:32:30;9.30;99.90
52849;DHT22;38714;53.180;5.812;2022-12-29T00:35:23;9.30;99.90
52849;DHT22;38714;53.180;5.812;2022-12-29T00:37:49;9.30;99.90
52849;DHT22;38714;53.180;5.812;2022-12-29T00:40:33;9.40;99.90
52849;DHT22;38714;53.180;5.812;2022-12-29T00:43:18;9.40;99.90
52849;DHT22;38714;53.180;5.812;2022-12-29T00:46:02;9.40;99.90
52849;DHT22;38714;53.180;5.812;2022-12-29T00:48:28;9.40;99.90
52849;DHT22;38714;53.180;5.812;2022-12-29T00:51:12;9.40;99.90
52849;DHT22;38714;53.180;5.812;2022-12-29T00:53:38;9.40;99.90
52849;DHT22;38714;53.180;5.812;2022-12-29T00:56:04;9.30;99.90
52849;DHT22;38714;53.180;5.812;2022-12-29T00:58:30;9.40;99.90
52849;DHT22;38714;53.180;5.812;2022-12-29T01:01:07;9.40;99.90
52849;DHT22;38714;53.180;5.812;2022-12-29T01:03:34;9.40;99.90
52849;DHT22;38714;53.180;5.812;2022-12-29T01:06:02;9.40;99.90
52849;DHT22;38714;53.180;5.812;2022-12-29T01:08:28;9.40;99.90
52849;DHT22;38714;53.180;5.812;2022-12-29T01:11:05;9.40;99.90
52849;DHT22;38714;53.180;5.812;2022-12-29T01:13:31;9.40;99.90
52849;DHT22;38714;53.180;5.812;2022-12-29T01:15:57;9.40;99.90
52849;DHT22;38714;53.180;5.812;2022-12-29T01:18:24;9.40;99.90
52849;DHT22;38714;53.180;5.812;2022-12-29T01:20:50;9.50;99.90
52849;DHT22;38714;53.180;5.812;2022-12-29T01:23:16;9.40;99.90
52849;DHT22;38714;53.180;5.812;2022-12-29T01:25:42;9.50;99.90
52849;DHT22;38714;53.180;5.812;2022-12-29T01:28:07;9.40;99.90
52849;DHT22;38714;53.180;5.812;2022-12-29T01:30:36;9.50;99.90
52849;DHT22;38714;53.180;5.812;2022-12-29T01:33:02;9.40;99.90
52849;DHT22;38714;53.180;5.812;2022-12-29T01:35:28;9.40;99.90
52849;DHT22;38714;53.180;5.812;2022-12-29T01:37:54;9.40;99.90
52849;DHT22;38714;53.180;5.812;2022-12-29T01:40:19;9.40;99.90
52849;DHT22;38714;53.180;5.812;2022-12-29T01:42:45;9.50;99.90
52849;DHT22;38714;53.180;5.812;2022-12-29T01:45:13;9.40;99.90
52849;DHT22;38714;53.180;5.812;2022-12-29T01:47:47;9.40;99.90
52849;DHT22;38714;53.180;5.812;2022-12-29T01:50:35;9.50;99.90
52849;DHT22;38714;53.180;5.812;2022-12-29T01:55:34;9.40;99.90
52849;DHT22;38714;53.180;5.812;2022-12-29T01:58:03;9.40;99.90
52849;DHT22;38714;53.180;5.812;2022-12-29T02:00:30;9.40;99.90
52849;DHT22;38714;53.180;5.812;2022-12-29T02:02:55;9.40;99.90
52849;DHT22;38714;53.180;5.812;2022-12-29T02:05:29;9.40;99.90
52849;DHT22;38714;53.180;5.812;2022-12-29T02:07:56;9.40;99.90
52849;DHT22;38714;53.180;5.812;2022-12-29T02:10:24;9.40;99.90
52849;DHT22;38714;53.180;5.812;2022-12-29T02:12:50;9.40;99.90
52849;DHT22;38714;53.180;5.812;2022-12-29T02:15:17;9.40;99.90
52849;DHT22;38714;53.180;5.812;2022-12-29T02:20:47;9.40;99.90
52849;DHT22;38714;53.180;5.812;2022-12-29T02:29:15;9.30;99.90
52849;DHT22;38714;53.180;5.812;2022-12-29T02:31:59;9.30;99.90
52849;DHT22;38714;53.180;5.812;2022-12-29T02:34:36;9.30;99.90
52849;DHT22;38714;53.180;5.812;2022-12-29T02:42:49;9.30;99.90
52849;DHT22;38714;53.180;5.812;2022-12-29T02:45:32;9.30;99.90
52849;DHT22;38714;53.180;5.812;2022-12-29T02:53:25;9.30;99.90
52849;DHT22;38714;53.180;5.812;2022-12-29T02:56:10;9.30;99.90
52849;DHT22;38714;53.180;5.812;2022-12-29T02:58:35;9.20;99.90
52849;DHT22;38714;53.180;5.812;2022-12-29T03:07:03;9.10;99.90
52849;DHT22;38714;53.180;5.812;2022-12-29T03:09:48;9.10;99.90
52849;DHT22;38714;53.180;5.812;2022-12-29T03:15:03;9.00;99.90
52849;DHT22;38714;53.180;5.812;2022-12-29T03:17:59;9.00;99.90
52849;DHT22;38714;53.180;5.812;2022-12-29T03:20:36;9.00;99.90
52849;DHT22;38714;53.180;5.812;2022-12-29T03:23:05;9.00;99.90
52849;DHT22;38714;53.180;5.812;2022-12-29T03:25:42;9.00;99.90
52849;DHT22;38714;53.180;5.812;2022-12-29T03:28:12;9.00;99.90
52849;DHT22;38714;53.180;5.812;2022-12-29T03:30:39;8.90;99.90
52849;DHT22;38714;53.180;5.812;2022-12-29T03:33:09;8.90;99.90
52849;DHT22;38714;53.180;5.812;2022-12-29T03:35:38;8.90;99.90
52849;DHT22;38714;53.180;5.812;2022-12-29T03:40:44;8.90;99.90
52849;DHT22;38714;53.180;5.812;2022-12-29T03:43:10;8.90;99.90
52849;DHT22;38714;53.180;5.812;2022-12-29T03:45:37;8.90;99.90
52849;DHT22;38714;53.180;5.812;2022-12-29T03:48:03;8.80;99.90
52849;DHT22;38714;53.180;5.812;2022-12-29T03:50:29;8.80;99.90
52849;DHT22;38714;53.180;5.812;2022-12-29T03:52:55;8.80;99.90
52849;DHT22;38714;53.180;5.812;2022-12-29T03:55:20;8.80;99.90
52849;DHT22;38714;53.180;5.812;2022-12-29T03:57:46;8.80;99.90
52849;DHT22;38714;53.180;5.812;2022-12-29T04:00:12;8.70;99.90
52849;DHT22;38714;53.180;5.812;2022-12-29T04:02:38;8.70;99.90
52849;DHT22;38714;53.180;5.812;2022-12-29T04:05:04;8.70;99.90
52849;DHT22;38714;53.180;5.812;2022-12-29T04:07:30;8.70;99.90
52849;DHT22;38714;53.180;5.812;2022-12-29T04:09:55;8.70;99.90
52849;DHT22;38714;53.180;5.812;2022-12-29T04:12:21;8.70;99.90
52849;DHT22;38714;53.180;5.812;2022-12-29T04:14:46;8.70;99.90
52849;DHT22;38714;53.180;5.812;2022-12-29T04:17:12;8.70;99.90
52849;DHT22;38714;53.180;5.812;2022-12-29T04:19:38;8.70;99.90
52849;DHT22;38714;53.180;5.812;2022-12-29T04:22:03;8.60;99.90
52849;DHT22;38714;53.180;5.812;2022-12-29T04:24:29;8.60;99.90
52849;DHT22;38714;53.180;5.812;2022-12-29T04:26:54;8.60;99.90
52849;DHT22;38714;53.180;5.812;2022-12-29T04:29:20;8.60;99.90
52849;DHT22;38714;53.180;5.812;2022-12-29T04:31:46;8.60;99.90
52849;DHT22;38714;53.180;5.812;2022-12-29T04:34:11;8.50;99.90
52849;DHT22;38714;53.180;5.812;2022-12-29T04:36:37;8.50;99.90
52849;DHT22;38714;53.180;5.812;2022-12-29T04:39:04;8.50;99.90
52849;DHT22;38714;53.180;5.812;2022-12-29T04:41:30;8.50;99.90
52849;DHT22;38714;53.180;5.812;2022-12-29T04:43:56;8.50;99.90
52849;DHT22;38714;53.180;5.812;2022-12-29T04:46:22;8.50;99.90
52849;DHT22;38714;53.180;5.812;2022-12-29T04:48:47;8.50;99.90
52849;DHT22;38714;53.180;5.812;2022-12-29T04:51:13;8.50;99.90
52849;DHT22;38714;53.180;5.812;2022-12-29T04:53:38;8.50;99.90
52849;DHT22;38714;53.180;5.812;2022-12-29T04:56:04;8.50;99.90
52849;DHT22;38714;53.180;5.812;2022-12-29T04:58:30;8.50;99.90
52849;DHT22;38714;53.180;5.812;2022-12-29T05:00:55;8.50;99.90
52849;DHT22;38714;53.180;5.812;2022-12-29T05:03:21;8.50;99.90
52849;DHT22;38714;53.180;5.812;2022-12-29T05:05:47;8.50;99.90
52849;DHT22;38714;53.180;5.812;2022-12-29T05:08:12;8.50;99.90
52849;DHT22;38714;53.180;5.812;2022-12-29T05:10:38;8.60;99.90
52849;DHT22;38714;53.180;5.812;2022-12-29T05:13:04;8.60;99.90
52849;DHT22;38714;53.180;5.812;2022-12-29T05:15:29;8.60;99.90
52849;DHT22;38714;53.180;5.812;2022-12-29T05:17:55;8.60;99.90
52849;DHT22;38714;53.180;5.812;2022-12-29T05:20:21;8.60;99.90
52849;DHT22;38714;53.180;5.812;2022-12-29T05:22:46;8.60;99.90
52849;DHT22;38714;53.180;5.812;2022-12-29T05:25:12;8.60;99.90
52849;DHT22;38714;53.180;5.812;2022-12-29T05:27:37;8.60;99.90
52849;DHT22;38714;53.180;5.812;2022-12-29T05:30:03;8.50;99.90
52849;DHT22;38714;53.180;5.812;2022-12-29T05:32:29;8.60;99.90
52849;DHT22;38714;53.180;5.812;2022-12-29T05:34:54;8.50;99.90
52849;DHT22;38714;53.180;5.812;2022-12-29T05:37:20;8.50;99.90
52849;DHT22;38714;53.180;5.812;2022-12-29T05:39:45;8.50;99.90
52849;DHT22;38714;53.180;5.812;2022-12-29T05:42:11;8.50;99.90
52849;DHT22;38714;53.180;5.812;2022-12-29T05:44:36;8.50;99.90
52849;DHT22;38714;53.180;5.812;2022-12-29T05:47:02;8.50;99.90
52849;DHT22;38714;53.180;5.812;2022-12-29T05:49:28;8.60;99.90
52849;DHT22;38714;53.180;5.812;2022-12-29T05:51:53;8.50;99.90
52849;DHT22;38714;53.180;5.812;2022-12-29T05:54:19;8.60;99.90
52849;DHT22;38714;53.180;5.812;2022-12-29T05:56:45;8.60;99.90
52849;DHT22;38714;53.180;5.812;2022-12-29T05:59:10;8.60;99.90
52849;DHT22;38714;53.180;5.812;2022-12-29T06:01:36;8.60;99.90
52849;DHT22;38714;53.180;5.812;2022-12-29T06:04:01;8.60;99.90
52849;DHT22;38714;53.180;5.812;2022-12-29T06:06:27;8.50;99.90
52849;DHT22;38714;53.180;5.812;2022-12-29T06:08:53;8.50;99.90
52849;DHT22;38714;53.180;5.812;2022-12-29T06:11:18;8.50;99.90
52849;DHT22;38714;53.180;5.812;2022-12-29T06:13:44;8.50;99.90
52849;DHT22;38714;53.180;5.812;2022-12-29T06:16:10;8.50;99.90
52849;DHT22;38714;53.180;5.812;2022-12-29T06:18:35;8.50;99.90
52849;DHT22;38714;53.180;5.812;2022-12-29T06:21:03;8.50;99.90
52849;DHT22;38714;53.180;5.812;2022-12-29T06:23:29;8.50;99.90
52849;DHT22;38714;53.180;5.812;2022-12-29T06:25:55;8.40;99.90
52849;DHT22;38714;53.180;5.812;2022-12-29T06:28:20;8.40;99.90
52849;DHT22;38714;53.180;5.812;2022-12-29T06:30:46;8.40;99.90
52849;DHT22;38714;53.180;5.812;2022-12-29T06:33:12;8.40;99.90
52849;DHT22;38714;53.180;5.812;2022-12-29T06:35:38;8.40;99.90
52849;DHT22;38714;53.180;5.812;2022-12-29T06:38:04;8.40;99.90
52849;DHT22;38714;53.180;5.812;2022-12-29T06:40:29;8.40;99.90
52849;DHT22;38714;53.180;5.812;2022-12-29T06:42:55;8.40;99.90
52849;DHT22;38714;53.180;5.812;2022-12-29T06:45:21;8.40;99.90
52849;DHT22;38714;53.180;5.812;2022-12-29T06:47:46;8.30;99.90
52849;DHT22;38714;53.180;5.812;2022-12-29T06:50:12;8.30;99.90
52849;DHT22;38714;53.180;5.812;2022-12-29T06:52:37;8.40;99.90
52849;DHT22;38714;53.180;5.812;2022-12-29T06:55:03;8.30;99.90
52849;DHT22;38714;53.180;5.812;2022-12-29T06:57:29;8.30;99.90
52849;DHT22;38714;53.180;5.812;2022-12-29T06:59:55;8.40;99.90
52849;DHT22;38714;53.180;5.812;2022-12-29T07:02:23;8.40;99.90
52849;DHT22;38714;53.180;5.812;2022-12-29T07:04:51;8.40;99.90
52849;DHT22;38714;53.180;5.812;2022-12-29T07:07:18;8.40;99.90
52849;DHT22;38714;53.180;5.812;2022-12-29T07:09:45;8.40;99.90
52849;DHT22;38714;53.180;5.812;2022-12-29T07:12:10;8.40;99.90
52849;DHT22;38714;53.180;5.812;2022-12-29T07:14:36;8.40;99.90
52849;DHT22;38714;53.180;5.812;2022-12-29T07:17:02;8.40;99.90
52849;DHT22;38714;53.180;5.812;2022-12-29T07:19:30;8.40;99.90
52849;DHT22;38714;53.180;5.812;2022-12-29T07:21:56;8.50;99.90
52849;DHT22;38714;53.180;5.812;2022-12-29T07:24:22;8.50;99.90
52849;DHT22;38714;53.180;5.812;2022-12-29T07:26:47;8.50;99.90
52849;DHT22;38714;53.180;5.812;2022-12-29T07:29:13;8.50;99.90
52849;DHT22;38714;53.180;5.812;2022-12-29T07:31:38;8.50;99.90
52849;DHT22;38714;53.180;5.812;2022-12-29T07:34:04;8.50;99.90
52849;DHT22;38714;53.180;5.812;2022-12-29T07:36:29;8.50;99.90
52849;DHT22;38714;53.180;5.812;2022-12-29T07:38:55;8.50;99.90
52849;DHT22;38714;53.180;5.812;2022-12-29T07:41:21;8.50;99.90
52849;DHT22;38714;53.180;5.812;2022-12-29T07:43:47;8.60;99.90
52849;DHT22;38714;53.180;5.812;2022-12-29T07:46:14;8.60;99.90
52849;DHT22;38714;53.180;5.812;2022-12-29T07:48:40;8.60;99.90
52849;DHT22;38714;53.180;5.812;2022-12-29T07:51:05;8.60;99.90
52849;DHT22;38714;53.180;5.812;2022-12-29T07:53:31;8.60;99.90
52849;DHT22;38714;53.180;5.812;2022-12-29T07:55:57;8.60;99.90
52849;DHT22;38714;53.180;5.812;2022-12-29T07:58:23;8.60;99.90
52849;DHT22;38714;53.180;5.812;2022-12-29T08:00:53;8.60;99.90
52849;DHT22;38714;53.180;5.812;2022-12-29T08:03:19;8.60;99.90
52849;DHT22;38714;53.180;5.812;2022-12-29T08:05:45;8.60;99.90
52849;DHT22;38714;53.180;5.812;2022-12-29T08:08:10;8.60;99.90
52849;DHT22;38714;53.180;5.812;2022-12-29T08:10:36;8.60;99.90
52849;DHT22;38714;53.180;5.812;2022-12-29T08:13:01;8.60;99.90
52849;DHT22;38714;53.180;5.812;2022-12-29T08:15:27;8.60;99.90
52849;DHT22;38714;53.180;5.812;2022-12-29T08:17:53;8.60;99.90
52849;DHT22;38714;53.180;5.812;2022-12-29T08:20:18;8.60;99.90
52849;DHT22;38714;53.180;5.812;2022-12-29T08:22:44;8.60;99.90
52849;DHT22;38714;53.180;5.812;2022-12-29T08:25:09;8.60;99.90
52849;DHT22;38714;53.180;5.812;2022-12-29T08:27:35;8.60;99.90
52849;DHT22;38714;53.180;5.812;2022-12-29T08:30:01;8.60;99.90
52849;DHT22;38714;53.180;5.812;2022-12-29T08:32:27;8.60;99.90
52849;DHT22;38714;53.180;5.812;2022-12-29T08:34:56;8.60;99.90
52849;DHT22;38714;53.180;5.812;2022-12-29T08:37:22;8.60;99.90
52849;DHT22;38714;53.180;5.812;2022-12-29T08:39:48;8.70;99.90
52849;DHT22;38714;53.180;5.812;2022-12-29T08:42:13;8.70;99.90
52849;DHT22;38714;53.180;5.812;2022-12-29T08:44:39;8.70;99.90
52849;DHT22;38714;53.180;5.812;2022-12-29T08:47:05;8.70;99.90
52849;DHT22;38714;53.180;5.812;2022-12-29T08:49:31;8.70;99.90
52849;DHT22;38714;53.180;5.812;2022-12-29T08:51:58;8.70;99.90
52849;DHT22;38714;53.180;5.812;2022-12-29T08:54:24;8.70;99.90
52849;DHT22;38714;53.180;5.812;2022-12-29T08:56:53;8.70;99.90
52849;DHT22;38714;53.180;5.812;2022-12-29T08:59:19;8.70;99.90
52849;DHT22;38714;53.180;5.812;2022-12-29T09:01:45;8.70;99.90
52849;DHT22;38714;53.180;5.812;2022-12-29T09:04:10;8.70;99.90
52849;DHT22;38714;53.180;5.812;2022-12-29T09:06:36;8.70;99.90
52849;DHT22;38714;53.180;5.812;2022-12-29T09:09:02;8.70;99.90
52849;DHT22;38714;53.180;5.812;2022-12-29T09:11:27;8.70;99.90
52849;DHT22;38714;53.180;5.812;2022-12-29T09:13:53;8.70;99.90
52849;DHT22;38714;53.180;5.812;2022-12-29T09:16:21;8.70;99.90
52849;DHT22;38714;53.180;5.812;2022-12-29T09:18:47;8.80;99.90
52849;DHT22;38714;53.180;5.812;2022-12-29T09:23:57;8.80;99.90
52849;DHT22;38714;53.180;5.812;2022-12-29T09:26:22;8.70;99.90
52849;DHT22;38714;53.180;5.812;2022-12-29T09:28:48;8.70;99.90
52849;DHT22;38714;53.180;5.812;2022-12-29T09:31:14;8.70;99.90
52849;DHT22;38714;53.180;5.812;2022-12-29T09:33:39;8.70;99.90
52849;DHT22;38714;53.180;5.812;2022-12-29T09:36:05;8.70;99.90
52849;DHT22;38714;53.180;5.812;2022-12-29T09:38:31;8.70;99.90
52849;DHT22;38714;53.180;5.812;2022-12-29T09:41:05;8.70;99.90
52849;DHT22;38714;53.180;5.812;2022-12-29T09:46:27;8.60;99.90
52849;DHT22;38714;53.180;5.812;2022-12-29T09:51:46;8.50;99.90
52849;DHT22;38714;53.180;5.812;2022-12-29T09:54:39;8.50;99.90
52849;DHT22;38714;53.180;5.812;2022-12-29T09:57:49;8.50;99.90
52849;DHT22;38714;53.180;5.812;2022-12-29T10:00:19;8.50;99.90
52849;DHT22;38714;53.180;5.812;2022-12-29T10:02:52;8.50;99.90
52849;DHT22;38714;53.180;5.812;2022-12-29T10:05:44;8.50;99.90
52849;DHT22;38714;53.180;5.812;2022-12-29T10:08:39;8.50;99.90
52849;DHT22;38714;53.180;5.812;2022-12-29T10:14:26;8.50;99.90
52849;DHT22;38714;53.180;5.812;2022-12-29T10:25:19;8.60;99.90
52849;DHT22;38714;53.180;5.812;2022-12-29T10:27:48;8.60;99.90
52849;DHT22;38714;53.180;5.812;2022-12-29T10:30:15;8.60;99.90
52849;DHT22;38714;53.180;5.812;2022-12-29T10:32:47;8.60;99.90
52849;DHT22;38714;53.180;5.812;2022-12-29T10:35:21;8.70;99.90
52849;DHT22;38714;53.180;5.812;2022-12-29T10:38:09;8.70;99.90
52849;DHT22;38714;53.180;5.812;2022-12-29T10:40:38;8.70;99.90
52849;DHT22;38714;53.180;5.812;2022-12-29T10:43:22;8.70;99.90
52849;DHT22;38714;53.180;5.812;2022-12-29T10:45:49;8.70;99.90
52849;DHT22;38714;53.180;5.812;2022-12-29T10:48:21;8.80;99.90
52849;DHT22;38714;53.180;5.812;2022-12-29T10:50:48;8.80;99.90
52849;DHT22;38714;53.180;5.812;2022-12-29T10:53:20;8.80;99.90
52849;DHT22;38714;53.180;5.812;2022-12-29T10:55:47;8.80;99.90
52849;DHT22;38714;53.180;5.812;2022-12-29T10:58:14;8.80;99.90
52849;DHT22;38714;53.180;5.812;2022-12-29T11:00:41;8.80;99.90
52849;DHT22;38714;53.180;5.812;2022-12-29T11:06:24;8.80;99.90
52849;DHT22;38714;53.180;5.812;2022-12-29T11:11:26;8.80;99.90
52849;DHT22;38714;53.180;5.812;2022-12-29T11:14:18;8.90;99.90
52849;DHT22;38714;53.180;5.812;2022-12-29T11:16:42;8.90;99.90
52849;DHT22;38714;53.180;5.812;2022-12-29T11:19:24;8.90;99.90
52849;DHT22;38714;53.180;5.812;2022-12-29T11:21:51;8.90;99.90
52849;DHT22;38714;53.180;5.812;2022-12-29T11:24:26;8.90;99.90
52849;DHT22;38714;53.180;5.812;2022-12-29T11:26:54;8.90;99.90
52849;DHT22;38714;53.180;5.812;2022-12-29T11:29:28;8.90;99.90
52849;DHT22;38714;53.180;5.812;2022-12-29T11:31:56;8.80;99.90
52849;DHT22;38714;53.180;5.812;2022-12-29T11:34:32;8.80;99.90
52849;DHT22;38714;53.180;5.812;2022-12-29T11:37:03;8.80;99.90
52849;DHT22;38714;53.180;5.812;2022-12-29T11:42:15;8.80;99.90
52849;DHT22;38714;53.180;5.812;2022-12-29T11:44:46;8.70;99.90
52849;DHT22;38714;53.180;5.812;2022-12-29T11:47:29;8.70;99.90
52849;DHT22;38714;53.180;5.812;2022-12-29T11:50:00;8.70;99.90
52849;DHT22;38714;53.180;5.812;2022-12-29T11:52:28;8.70;99.90
52849;DHT22;38714;53.180;5.812;2022-12-29T11:54:55;8.80;99.90
52849;DHT22;38714;53.180;5.812;2022-12-29T11:57:22;8.70;99.90
52849;DHT22;38714;53.180;5.812;2022-12-29T11:59:52;8.70;99.90
52849;DHT22;38714;53.180;5.812;2022-12-29T12:04:49;8.80;99.90
52849;DHT22;38714;53.180;5.812;2022-12-29T12:07:20;8.70;99.90
52849;DHT22;38714;53.180;5.812;2022-12-29T12:09:54;8.70;99.90
52849;DHT22;38714;53.180;5.812;2022-12-29T12:12:32;8.70;99.90
52849;DHT22;38714;53.180;5.812;2022-12-29T12:15:01;8.70;99.90
52849;DHT22;38714;53.180;5.812;2022-12-29T12:17:36;8.80;99.90
52849;DHT22;38714;53.180;5.812;2022-12-29T12:25:09;8.70;99.90
52849;DHT22;38714;53.180;5.812;2022-12-29T12:27:41;8.70;99.90
52849;DHT22;38714;53.180;5.812;2022-12-29T12:30:22;8.70;99.90
52849;DHT22;38714;53.180;5.812;2022-12-29T12:35:46;8.70;99.90
52849;DHT22;38714;53.180;5.812;2022-12-29T12:38:39;8.70;99.90
52849;DHT22;38714;53.180;5.812;2022-12-29T12:44:18;8.70;99.90
52849;DHT22;38714;53.180;5.812;2022-12-29T12:55:00;8.70;99.90
52849;DHT22;38714;53.180;5.812;2022-12-29T13:00:16;8.60;99.90
52849;DHT22;38714;53.180;5.812;2022-12-29T13:11:02;8.60;99.90
52849;DHT22;38714;53.180;5.812;2022-12-29T13:19:09;8.50;99.90
52849;DHT22;38714;53.180;5.812;2022-12-29T13:30:03;8.50;99.90
52849;DHT22;38714;53.180;5.812;2022-12-29T13:38:46;8.50;99.90
52849;DHT22;38714;53.180;5.812;2022-12-29T13:41:34;8.50;99.90
52849;DHT22;38714;53.180;5.812;2022-12-29T13:44:03;8.50;99.90
52849;DHT22;38714;53.180;5.812;2022-12-29T13:46:34;8.50;99.90
52849;DHT22;38714;53.180;5.812;2022-12-29T13:49:18;8.50;99.90
52849;DHT22;38714;53.180;5.812;2022-12-29T13:51:56;8.50;99.90
52849;DHT22;38714;53.180;5.812;2022-12-29T14:00:06;8.50;99.90
52849;DHT22;38714;53.180;5.812;2022-12-29T14:07:46;8.50;99.90
52849;DHT22;38714;53.180;5.812;2022-12-29T14:10:37;8.50;99.90
52849;DHT22;38714;53.180;5.812;2022-12-29T14:13:23;8.40;99.90
52849;DHT22;38714;53.180;5.812;2022-12-29T14:15:58;8.40;99.90
52849;DHT22;38714;53.180;5.812;2022-12-29T14:18:29;8.40;99.90
52849;DHT22;38714;53.180;5.812;2022-12-29T14:21:17;8.40;99.90
52849;DHT22;38714;53.180;5.812;2022-12-29T14:23:46;8.30;99.90
52849;DHT22;38714;53.180;5.812;2022-12-29T14:31:47;8.20;99.90
52849;DHT22;38714;53.180;5.812;2022-12-29T14:42:11;8.20;99.90
52849;DHT22;38714;53.180;5.812;2022-12-29T14:44:55;8.10;99.90
52849;DHT22;38714;53.180;5.812;2022-12-29T14:50:02;8.10;99.90
52849;DHT22;38714;53.180;5.812;2022-12-29T14:52:30;8.00;99.90
52849;DHT22;38714;53.180;5.812;2022-12-29T14:55:30;8.00;99.90
52849;DHT22;38714;53.180;5.812;2022-12-29T14:58:01;8.00;99.90
52849;DHT22;38714;53.180;5.812;2022-12-29T15:00:31;8.00;99.90
52849;DHT22;38714;53.180;5.812;2022-12-29T15:03:07;8.00;99.90
52849;DHT22;38714;53.180;5.812;2022-12-29T15:05:51;8.00;99.90
52849;DHT22;38714;53.180;5.812;2022-12-29T15:08:22;8.00;99.90
52849;DHT22;38714;53.180;5.812;2022-12-29T15:11:13;8.00;99.90
52849;DHT22;38714;53.180;5.812;2022-12-29T15:13:42;8.00;99.90
52849;DHT22;38714;53.180;5.812;2022-12-29T15:16:26;8.00;99.90
52849;DHT22;38714;53.180;5.812;2022-12-29T15:18:54;8.00;99.90
52849;DHT22;38714;53.180;5.812;2022-12-29T15:21:26;8.00;99.90
52849;DHT22;38714;53.180;5.812;2022-12-29T15:23:52;8.10;99.90
52849;DHT22;38714;53.180;5.812;2022-12-29T15:26:18;8.00;99.90
52849;DHT22;38714;53.180;5.812;2022-12-29T15:28:54;8.00;99.90
52849;DHT22;38714;53.180;5.812;2022-12-29T15:31:24;8.00;99.90
52849;DHT22;38714;53.180;5.812;2022-12-29T15:33:53;8.00;99.90
52849;DHT22;38714;53.180;5.812;2022-12-29T15:36:26;8.00;99.90
52849;DHT22;38714;53.180;5.812;2022-12-29T15:38:52;8.00;99.90
52849;DHT22;38714;53.180;5.812;2022-12-29T15:42:05;8.00;99.90
52849;DHT22;38714;53.180;5.812;2022-12-29T15:44:38;8.00;99.90
52849;DHT22;38714;53.180;5.812;2022-12-29T15:47:06;8.00;99.90
52849;DHT22;38714;53.180;5.812;2022-12-29T15:49:34;7.90;99.90
52849;DHT22;38714;53.180;5.812;2022-12-29T15:52:06;8.00;99.90
52849;DHT22;38714;53.180;5.812;2022-12-29T15:54:33;8.00;99.90
52849;DHT22;38714;53.180;5.812;2022-12-29T15:56:59;7.90;99.90
52849;DHT22;38714;53.180;5.812;2022-12-29T15:59:33;7.90;99.90
52849;DHT22;38714;53.180;5.812;2022-12-29T16:02:00;7.80;99.90
52849;DHT22;38714;53.180;5.812;2022-12-29T16:04:29;7.80;99.90
52849;DHT22;38714;53.180;5.812;2022-12-29T16:07:00;7.80;99.90
52849;DHT22;38714;53.180;5.812;2022-12-29T16:09:40;7.80;99.90
52849;DHT22;38714;53.180;5.812;2022-12-29T16:12:17;7.80;99.90
52849;DHT22;38714;53.180;5.812;2022-12-29T16:14:47;7.70;99.90
52849;DHT22;38714;53.180;5.812;2022-12-29T16:17:16;7.70;99.90
52849;DHT22;38714;53.180;5.812;2022-12-29T16:19:50;7.60;99.90
52849;DHT22;38714;53.180;5.812;2022-12-29T16:22:26;7.60;99.90
52849;DHT22;38714;53.180;5.812;2022-12-29T16:24:56;7.60;99.90
52849;DHT22;38714;53.180;5.812;2022-12-29T16:29:55;7.50;99.90
52849;DHT22;38714;53.180;5.812;2022-12-29T16:32:31;7.50;99.90
52849;DHT22;38714;53.180;5.812;2022-12-29T16:37:45;7.50;99.90
52849;DHT22;38714;53.180;5.812;2022-12-29T16:50:34;7.40;99.90
52849;DHT22;38714;53.180;5.812;2022-12-29T16:53:01;7.40;99.90
52849;DHT22;38714;53.180;5.812;2022-12-29T16:55:28;7.40;99.90
52849;DHT22;38714;53.180;5.812;2022-12-29T16:57:55;7.30;99.90
52849;DHT22;38714;53.180;5.812;2022-12-29T17:00:31;7.40;99.90
52849;DHT22;38714;53.180;5.812;2022-12-29T17:03:00;7.40;99.90
52849;DHT22;38714;53.180;5.812;2022-12-29T17:05:26;7.40;99.90
52849;DHT22;38714;53.180;5.812;2022-12-29T17:07:52;7.40;99.90
52849;DHT22;38714;53.180;5.812;2022-12-29T17:10:18;7.40;99.90
52849;DHT22;38714;53.180;5.812;2022-12-29T17:12:45;7.40;99.90
52849;DHT22;38714;53.180;5.812;2022-12-29T17:15:26;7.50;99.90
52849;DHT22;38714;53.180;5.812;2022-12-29T17:17:54;7.50;99.90
52849;DHT22;38714;53.180;5.812;2022-12-29T17:22:49;7.50;99.90
52849;DHT22;38714;53.180;5.812;2022-12-29T17:25:21;7.50;99.90
52849;DHT22;38714;53.180;5.812;2022-12-29T17:28:04;7.50;99.90
52849;DHT22;38714;53.180;5.812;2022-12-29T17:30:31;7.60;99.90
52849;DHT22;38714;53.180;5.812;2022-12-29T17:33:04;7.60;99.90
52849;DHT22;38714;53.180;5.812;2022-12-29T17:35:30;7.50;99.90
52849;DHT22;38714;53.180;5.812;2022-12-29T17:37:56;7.50;99.90
52849;DHT22;38714;53.180;5.812;2022-12-29T17:40:24;7.50;99.90
52849;DHT22;38714;53.180;5.812;2022-12-29T17:42:53;7.50;99.90
52849;DHT22;38714;53.180;5.812;2022-12-29T17:45:28;7.50;99.90
52849;DHT22;38714;53.180;5.812;2022-12-29T17:47:54;7.50;99.90
52849;DHT22;38714;53.180;5.812;2022-12-29T17:50:22;7.50;99.90
52849;DHT22;38714;53.180;5.812;2022-12-29T17:52:54;7.50;99.90
52849;DHT22;38714;53.180;5.812;2022-12-29T17:55:22;7.50;99.90
52849;DHT22;38714;53.180;5.812;2022-12-29T17:57:48;7.50;99.90
52849;DHT22;38714;53.180;5.812;2022-12-29T18:00:22;7.50;99.90
52849;DHT22;38714;53.180;5.812;2022-12-29T18:02:48;7.50;99.90
52849;DHT22;38714;53.180;5.812;2022-12-29T18:05:27;7.50;99.90
52849;DHT22;38714;53.180;5.812;2022-12-29T18:07:54;7.50;99.90
52849;DHT22;38714;53.180;5.812;2022-12-29T18:10:21;7.50;99.90
52849;DHT22;38714;53.180;5.812;2022-12-29T18:12:49;7.40;99.90
52849;DHT22;38714;53.180;5.812;2022-12-29T18:15:19;7.40;99.90
52849;DHT22;38714;53.180;5.812;2022-12-29T18:17:45;7.40;99.90
52849;DHT22;38714;53.180;5.812;2022-12-29T18:20:11;7.40;99.90
52849;DHT22;38714;53.180;5.812;2022-12-29T18:22:36;7.40;99.90
52849;DHT22;38714;53.180;5.812;2022-12-29T18:25:09;7.40;99.90
52849;DHT22;38714;53.180;5.812;2022-12-29T18:27:37;7.30;99.90
52849;DHT22;38714;53.180;5.812;2022-12-29T18:30:03;7.30;99.90
52849;DHT22;38714;53.180;5.812;2022-12-29T18:32:29;7.30;99.90
52849;DHT22;38714;53.180;5.812;2022-12-29T18:34:54;7.30;99.90
52849;DHT22;38714;53.180;5.812;2022-12-29T18:37:20;7.40;99.90
52849;DHT22;38714;53.180;5.812;2022-12-29T18:39:45;7.40;99.90
52849;DHT22;38714;53.180;5.812;2022-12-29T18:42:15;7.40;99.90
52849;DHT22;38714;53.180;5.812;2022-12-29T18:44:41;7.40;99.90